Pagrindinis puslapis
METAR-TAF:

METAR-TAF

Oro uostai :

Veliko Tirnovas, Bulgarija

platuma: 43-09N, ilguma: 025-36E, Aukštis: 87 m

Dabartinis oras

Ataskaita buvo paskelbta 19 minutes, ne 06:00 UTC
Vėjas 3 kt iš Rytų, svyruoja nuo Rytų/Šiaurės Rytų ir Pietryčių
Temperatūra 7°C
Drėgmė 76%
Slėgis 1018 hPa
Matomumas 10 km arba daugiau

METAR: LBGO 100600Z AUTO 10003KT 070V130 9999 NCD 07/03 Q1018 NOSIG

Laikas: 09:19 (06:19 UTC)

Prognozė

Ataskaita buvo paskelbta 1 valandą ir 19 minutes, ne 05:00 UTC
Prognozė galioja nuo 10 metu 06 UTC su 11 metu 06 UTC
Vėjas 10 kt iš Vakarų/Šiaurės Vakarų
Matomumas 10 km arba daugiau
nėra debesų žemiau 1500 m ir nėra kamuolinių lietaus debesų
Tapsmas
nuo 10 metu 16 UTC su 10 metu 18 UTC
Vėjas 4 kt nuo kintamojo kryptimis

TAF: LBGO 100500Z 1006/1106 30010KT CAVOK BECMG 1016/1018 VRB04KT

Orai ataskaitas ir orų prognozės (METAR, TAF).

turimą stotys yra geltonos ir raudonos taškus žemėlapyje.

Perkelti pele per norėdami pamatyti stoties vardą.

Tada spustelėkite, norėdami matyti oro stebėjimo ir prognozės.

Norėdami pakeisti žemėlapį: spustelėkite ant žalios mygtukų su juodo kryžiaus žemyn,; žalią mygtuką su brūkšneliu, jei norite nutolinti; arba žalių rodyklių gretimoms žemėlapius.


METAR-TAF: